sensor_id;sensor_type;location;lat;lon;timestamp;P1;durP1;ratioP1;P2;durP2;ratioP2
15831;SDS011;8016;49.928;9.372;2023-08-01T00:02:22;5.30;;;3.97;;
15831;SDS011;8016;49.928;9.372;2023-08-01T00:04:48;5.00;;;4.00;;
15831;SDS011;8016;49.928;9.372;2023-08-01T00:07:14;4.33;;;3.93;;
15831;SDS011;8016;49.928;9.372;2023-08-01T00:09:40;5.40;;;4.43;;
15831;SDS011;8016;49.928;9.372;2023-08-01T00:12:06;6.57;;;4.60;;
15831;SDS011;8016;49.928;9.372;2023-08-01T00:14:32;5.20;;;4.03;;
15831;SDS011;8016;49.928;9.372;2023-08-01T00:16:58;5.83;;;4.30;;
15831;SDS011;8016;49.928;9.372;2023-08-01T00:19:24;5.27;;;3.97;;
15831;SDS011;8016;49.928;9.372;2023-08-01T00:21:50;4.70;;;4.10;;
15831;SDS011;8016;49.928;9.372;2023-08-01T00:24:16;6.10;;;4.50;;
15831;SDS011;8016;49.928;9.372;2023-08-01T00:26:42;5.80;;;4.33;;
15831;SDS011;8016;49.928;9.372;2023-08-01T00:29:08;5.70;;;4.30;;
15831;SDS011;8016;49.928;9.372;2023-08-01T00:31:34;5.63;;;4.17;;
15831;SDS011;8016;49.928;9.372;2023-08-01T00:34:00;6.93;;;4.20;;
15831;SDS011;8016;49.928;9.372;2023-08-01T00:36:26;4.33;;;3.83;;
15831;SDS011;8016;49.928;9.372;2023-08-01T00:38:52;5.03;;;4.27;;
15831;SDS011;8016;49.928;9.372;2023-08-01T00:41:18;9.80;;;4.67;;
15831;SDS011;8016;49.928;9.372;2023-08-01T00:43:44;5.37;;;4.13;;
15831;SDS011;8016;49.928;9.372;2023-08-01T00:46:10;7.00;;;4.97;;
15831;SDS011;8016;49.928;9.372;2023-08-01T00:48:36;8.17;;;4.40;;
15831;SDS011;8016;49.928;9.372;2023-08-01T00:51:05;5.27;;;4.70;;
15831;SDS011;8016;49.928;9.372;2023-08-01T00:53:33;7.00;;;4.57;;
15831;SDS011;8016;49.928;9.372;2023-08-01T00:56:00;4.87;;;4.03;;
15831;SDS011;8016;49.928;9.372;2023-08-01T00:58:26;4.53;;;3.63;;
15831;SDS011;8016;49.928;9.372;2023-08-01T01:00:52;5.13;;;4.63;;
15831;SDS011;8016;49.928;9.372;2023-08-01T01:03:18;6.95;;;5.13;;
15831;SDS011;8016;49.928;9.372;2023-08-01T01:05:49;4.97;;;3.90;;
15831;SDS011;8016;49.928;9.372;2023-08-01T01:08:19;6.17;;;3.47;;
15831;SDS011;8016;49.928;9.372;2023-08-01T01:10:45;6.40;;;3.00;;
15831;SDS011;8016;49.928;9.372;2023-08-01T01:13:11;4.03;;;3.20;;
15831;SDS011;8016;49.928;9.372;2023-08-01T01:15:37;4.97;;;3.70;;
15831;SDS011;8016;49.928;9.372;2023-08-01T01:18:03;4.73;;;3.70;;
15831;SDS011;8016;49.928;9.372;2023-08-01T01:20:34;5.00;;;3.27;;
15831;SDS011;8016;49.928;9.372;2023-08-01T01:23:00;4.30;;;3.20;;
15831;SDS011;8016;49.928;9.372;2023-08-01T01:25:28;4.07;;;3.30;;
15831;SDS011;8016;49.928;9.372;2023-08-01T01:27:54;3.13;;;2.70;;
15831;SDS011;8016;49.928;9.372;2023-08-01T01:30:21;3.30;;;2.40;;
15831;SDS011;8016;49.928;9.372;2023-08-01T01:32:48;3.40;;;2.53;;
15831;SDS011;8016;49.928;9.372;2023-08-01T01:35:14;3.47;;;3.00;;
15831;SDS011;8016;49.928;9.372;2023-08-01T01:37:40;4.43;;;3.10;;
15831;SDS011;8016;49.928;9.372;2023-08-01T01:40:06;3.30;;;2.70;;
15831;SDS011;8016;49.928;9.372;2023-08-01T01:42:32;4.50;;;3.13;;
15831;SDS011;8016;49.928;9.372;2023-08-01T01:44:58;3.47;;;3.17;;
15831;SDS011;8016;49.928;9.372;2023-08-01T01:47:24;3.60;;;3.30;;
15831;SDS011;8016;49.928;9.372;2023-08-01T01:49:50;5.13;;;4.00;;
15831;SDS011;8016;49.928;9.372;2023-08-01T01:52:16;4.87;;;3.87;;
15831;SDS011;8016;49.928;9.372;2023-08-01T01:54:42;4.10;;;3.70;;
15831;SDS011;8016;49.928;9.372;2023-08-01T01:57:08;5.97;;;4.30;;
15831;SDS011;8016;49.928;9.372;2023-08-01T01:59:34;8.13;;;4.57;;
15831;SDS011;8016;49.928;9.372;2023-08-01T02:02:00;5.93;;;4.43;;
15831;SDS011;8016;49.928;9.372;2023-08-01T02:04:26;4.30;;;3.67;;
15831;SDS011;8016;49.928;9.372;2023-08-01T02:06:51;6.47;;;4.27;;
15831;SDS011;8016;49.928;9.372;2023-08-01T02:09:19;9.10;;;3.83;;
15831;SDS011;8016;49.928;9.372;2023-08-01T02:11:45;5.50;;;4.03;;
15831;SDS011;8016;49.928;9.372;2023-08-01T02:14:11;5.20;;;4.07;;
15831;SDS011;8016;49.928;9.372;2023-08-01T02:16:37;9.53;;;5.00;;
15831;SDS011;8016;49.928;9.372;2023-08-01T02:19:03;6.60;;;4.47;;
15831;SDS011;8016;49.928;9.372;2023-08-01T02:21:29;6.73;;;4.37;;
15831;SDS011;8016;49.928;9.372;2023-08-01T02:23:55;4.90;;;4.27;;
15831;SDS011;8016;49.928;9.372;2023-08-01T02:26:21;5.87;;;4.13;;
15831;SDS011;8016;49.928;9.372;2023-08-01T02:28:49;6.23;;;4.37;;
15831;SDS011;8016;49.928;9.372;2023-08-01T02:31:15;6.03;;;3.93;;
15831;SDS011;8016;49.928;9.372;2023-08-01T02:33:41;5.93;;;4.00;;
15831;SDS011;8016;49.928;9.372;2023-08-01T02:36:07;6.83;;;4.07;;
15831;SDS011;8016;49.928;9.372;2023-08-01T02:38:33;6.00;;;4.17;;
15831;SDS011;8016;49.928;9.372;2023-08-01T02:40:59;7.73;;;4.67;;
15831;SDS011;8016;49.928;9.372;2023-08-01T02:43:25;4.57;;;3.97;;
15831;SDS011;8016;49.928;9.372;2023-08-01T02:45:51;4.97;;;4.07;;
15831;SDS011;8016;49.928;9.372;2023-08-01T02:48:17;4.50;;;3.50;;
15831;SDS011;8016;49.928;9.372;2023-08-01T02:50:43;5.00;;;3.83;;
15831;SDS011;8016;49.928;9.372;2023-08-01T02:53:09;5.67;;;4.00;;
15831;SDS011;8016;49.928;9.372;2023-08-01T02:55:34;4.13;;;3.73;;
15831;SDS011;8016;49.928;9.372;2023-08-01T02:58:00;6.53;;;3.40;;
15831;SDS011;8016;49.928;9.372;2023-08-01T03:00:26;4.97;;;3.50;;
15831;SDS011;8016;49.928;9.372;2023-08-01T03:02:52;4.47;;;3.73;;
15831;SDS011;8016;49.928;9.372;2023-08-01T03:05:18;5.30;;;3.77;;
15831;SDS011;8016;49.928;9.372;2023-08-01T03:07:44;6.10;;;3.73;;
15831;SDS011;8016;49.928;9.372;2023-08-01T03:10:10;4.73;;;3.50;;
15831;SDS011;8016;49.928;9.372;2023-08-01T03:12:36;3.63;;;3.00;;
15831;SDS011;8016;49.928;9.372;2023-08-01T03:15:02;4.67;;;3.53;;
15831;SDS011;8016;49.928;9.372;2023-08-01T03:17:28;3.43;;;3.07;;
15831;SDS011;8016;49.928;9.372;2023-08-01T03:19:54;5.27;;;2.97;;
15831;SDS011;8016;49.928;9.372;2023-08-01T03:22:20;3.90;;;3.03;;
15831;SDS011;8016;49.928;9.372;2023-08-01T03:24:46;4.87;;;3.27;;
15831;SDS011;8016;49.928;9.372;2023-08-01T03:27:12;5.73;;;3.30;;
15831;SDS011;8016;49.928;9.372;2023-08-01T03:29:38;3.07;;;2.70;;
15831;SDS011;8016;49.928;9.372;2023-08-01T03:32:04;3.87;;;2.90;;
15831;SDS011;8016;49.928;9.372;2023-08-01T03:34:30;4.23;;;2.47;;
15831;SDS011;8016;49.928;9.372;2023-08-01T03:36:56;3.23;;;2.80;;
15831;SDS011;8016;49.928;9.372;2023-08-01T03:39:22;3.93;;;2.70;;
15831;SDS011;8016;49.928;9.372;2023-08-01T03:41:48;4.37;;;2.90;;
15831;SDS011;8016;49.928;9.372;2023-08-01T03:44:14;2.80;;;2.45;;
15831;SDS011;8016;49.928;9.372;2023-08-01T03:46:42;3.17;;;2.37;;
15831;SDS011;8016;49.928;9.372;2023-08-01T03:49:08;3.97;;;2.40;;
15831;SDS011;8016;49.928;9.372;2023-08-01T03:51:34;3.00;;;2.67;;
15831;SDS011;8016;49.928;9.372;2023-08-01T03:54:00;4.17;;;2.73;;
15831;SDS011;8016;49.928;9.372;2023-08-01T03:56:26;3.57;;;2.80;;
15831;SDS011;8016;49.928;9.372;2023-08-01T03:58:52;5.73;;;3.03;;
15831;SDS011;8016;49.928;9.372;2023-08-01T04:01:18;5.33;;;3.17;;
15831;SDS011;8016;49.928;9.372;2023-08-01T04:03:45;3.83;;;2.77;;
15831;SDS011;8016;49.928;9.372;2023-08-01T04:06:14;4.70;;;3.50;;
15831;SDS011;8016;49.928;9.372;2023-08-01T04:08:40;4.90;;;2.73;;
15831;SDS011;8016;49.928;9.372;2023-08-01T04:11:06;4.43;;;3.17;;
15831;SDS011;8016;49.928;9.372;2023-08-01T04:13:32;3.53;;;2.60;;
15831;SDS011;8016;49.928;9.372;2023-08-01T04:15:58;4.90;;;2.80;;
15831;SDS011;8016;49.928;9.372;2023-08-01T04:18:25;4.43;;;3.15;;
15831;SDS011;8016;49.928;9.372;2023-08-01T04:20:51;5.27;;;3.07;;
15831;SDS011;8016;49.928;9.372;2023-08-01T04:23:17;4.83;;;3.43;;
15831;SDS011;8016;49.928;9.372;2023-08-01T04:25:43;3.13;;;2.67;;
15831;SDS011;8016;49.928;9.372;2023-08-01T04:28:09;4.10;;;3.00;;
15831;SDS011;8016;49.928;9.372;2023-08-01T04:30:35;4.20;;;3.10;;
15831;SDS011;8016;49.928;9.372;2023-08-01T04:33:03;4.07;;;3.00;;
15831;SDS011;8016;49.928;9.372;2023-08-01T04:35:29;4.77;;;3.00;;
15831;SDS011;8016;49.928;9.372;2023-08-01T04:37:55;3.63;;;2.70;;
15831;SDS011;8016;49.928;9.372;2023-08-01T04:40:21;3.20;;;2.67;;
15831;SDS011;8016;49.928;9.372;2023-08-01T04:42:47;5.27;;;2.67;;
15831;SDS011;8016;49.928;9.372;2023-08-01T04:45:13;3.97;;;2.80;;
15831;SDS011;8016;49.928;9.372;2023-08-01T04:47:39;5.33;;;2.90;;
15831;SDS011;8016;49.928;9.372;2023-08-01T04:50:05;4.13;;;2.83;;
15831;SDS011;8016;49.928;9.372;2023-08-01T04:52:31;3.10;;;2.67;;
15831;SDS011;8016;49.928;9.372;2023-08-01T04:54:57;3.87;;;2.63;;
15831;SDS011;8016;49.928;9.372;2023-08-01T04:57:23;4.07;;;2.97;;
15831;SDS011;8016;49.928;9.372;2023-08-01T04:59:49;3.57;;;2.67;;
15831;SDS011;8016;49.928;9.372;2023-08-01T05:02:15;3.40;;;2.83;;
15831;SDS011;8016;49.928;9.372;2023-08-01T05:04:41;4.60;;;2.50;;
15831;SDS011;8016;49.928;9.372;2023-08-01T05:07:07;3.97;;;3.07;;
15831;SDS011;8016;49.928;9.372;2023-08-01T05:09:33;3.57;;;2.70;;
15831;SDS011;8016;49.928;9.372;2023-08-01T05:11:59;3.80;;;2.90;;
15831;SDS011;8016;49.928;9.372;2023-08-01T05:14:25;3.40;;;2.70;;
15831;SDS011;8016;49.928;9.372;2023-08-01T05:16:51;4.73;;;3.03;;
15831;SDS011;8016;49.928;9.372;2023-08-01T05:19:16;3.80;;;2.43;;
15831;SDS011;8016;49.928;9.372;2023-08-01T05:21:42;3.07;;;2.43;;
15831;SDS011;8016;49.928;9.372;2023-08-01T05:24:08;3.83;;;2.57;;
15831;SDS011;8016;49.928;9.372;2023-08-01T05:26:35;3.50;;;2.47;;
15831;SDS011;8016;49.928;9.372;2023-08-01T05:29:01;3.57;;;2.60;;
15831;SDS011;8016;49.928;9.372;2023-08-01T05:31:27;2.60;;;2.27;;
15831;SDS011;8016;49.928;9.372;2023-08-01T05:33:53;3.93;;;2.50;;
15831;SDS011;8016;49.928;9.372;2023-08-01T05:36:19;2.87;;;2.50;;
15831;SDS011;8016;49.928;9.372;2023-08-01T05:38:45;2.60;;;2.10;;
15831;SDS011;8016;49.928;9.372;2023-08-01T05:41:11;2.73;;;2.40;;
15831;SDS011;8016;49.928;9.372;2023-08-01T05:43:37;4.77;;;1.90;;
15831;SDS011;8016;49.928;9.372;2023-08-01T05:46:03;3.03;;;2.17;;
15831;SDS011;8016;49.928;9.372;2023-08-01T05:48:29;4.37;;;2.20;;
15831;SDS011;8016;49.928;9.372;2023-08-01T05:50:55;2.03;;;1.83;;
15831;SDS011;8016;49.928;9.372;2023-08-01T05:53:21;2.17;;;1.90;;
15831;SDS011;8016;49.928;9.372;2023-08-01T05:55:47;2.47;;;1.90;;
15831;SDS011;8016;49.928;9.372;2023-08-01T05:58:13;3.23;;;2.10;;
15831;SDS011;8016;49.928;9.372;2023-08-01T06:00:39;2.37;;;2.13;;
15831;SDS011;8016;49.928;9.372;2023-08-01T06:03:05;3.23;;;1.90;;
15831;SDS011;8016;49.928;9.372;2023-08-01T06:05:31;2.20;;;2.00;;
15831;SDS011;8016;49.928;9.372;2023-08-01T06:07:57;2.13;;;1.83;;
15831;SDS011;8016;49.928;9.372;2023-08-01T06:10:23;1.90;;;1.80;;
15831;SDS011;8016;49.928;9.372;2023-08-01T06:12:49;2.50;;;2.20;;
15831;SDS011;8016;49.928;9.372;2023-08-01T06:15:15;2.60;;;2.40;;
15831;SDS011;8016;49.928;9.372;2023-08-01T06:17:41;3.27;;;2.10;;
15831;SDS011;8016;49.928;9.372;2023-08-01T06:20:07;2.77;;;2.07;;
15831;SDS011;8016;49.928;9.372;2023-08-01T06:22:33;4.53;;;2.60;;
15831;SDS011;8016;49.928;9.372;2023-08-01T06:24:59;2.13;;;1.93;;
15831;SDS011;8016;49.928;9.372;2023-08-01T06:27:25;2.50;;;2.00;;
15831;SDS011;8016;49.928;9.372;2023-08-01T06:29:51;3.17;;;2.43;;
15831;SDS011;8016;49.928;9.372;2023-08-01T06:32:17;3.00;;;2.17;;
15831;SDS011;8016;49.928;9.372;2023-08-01T06:34:43;2.43;;;2.20;;
15831;SDS011;8016;49.928;9.372;2023-08-01T06:37:09;2.30;;;2.10;;
15831;SDS011;8016;49.928;9.372;2023-08-01T06:39:35;2.53;;;2.33;;
15831;SDS011;8016;49.928;9.372;2023-08-01T06:42:01;2.70;;;2.47;;
15831;SDS011;8016;49.928;9.372;2023-08-01T06:44:28;3.60;;;2.27;;
15831;SDS011;8016;49.928;9.372;2023-08-01T06:46:54;4.43;;;3.03;;
15831;SDS011;8016;49.928;9.372;2023-08-01T06:49:19;3.90;;;2.90;;
15831;SDS011;8016;49.928;9.372;2023-08-01T06:51:45;3.57;;;2.77;;
15831;SDS011;8016;49.928;9.372;2023-08-01T06:54:11;3.77;;;2.33;;
15831;SDS011;8016;49.928;9.372;2023-08-01T06:56:37;3.47;;;2.77;;
15831;SDS011;8016;49.928;9.372;2023-08-01T06:59:03;3.10;;;2.30;;
15831;SDS011;8016;49.928;9.372;2023-08-01T07:01:29;3.43;;;2.17;;
15831;SDS011;8016;49.928;9.372;2023-08-01T07:03:57;2.17;;;1.70;;
15831;SDS011;8016;49.928;9.372;2023-08-01T07:06:23;3.40;;;2.13;;
15831;SDS011;8016;49.928;9.372;2023-08-01T07:08:49;2.53;;;1.97;;
15831;SDS011;8016;49.928;9.372;2023-08-01T07:11:15;2.40;;;2.20;;
15831;SDS011;8016;49.928;9.372;2023-08-01T07:13:41;1.90;;;1.70;;
15831;SDS011;8016;49.928;9.372;2023-08-01T07:16:07;2.60;;;1.80;;
15831;SDS011;8016;49.928;9.372;2023-08-01T07:18:33;2.63;;;2.10;;
15831;SDS011;8016;49.928;9.372;2023-08-01T07:21:00;5.03;;;2.93;;
15831;SDS011;8016;49.928;9.372;2023-08-01T07:23:26;3.87;;;2.90;;
15831;SDS011;8016;49.928;9.372;2023-08-01T07:25:52;3.03;;;2.60;;
15831;SDS011;8016;49.928;9.372;2023-08-01T07:28:18;4.27;;;3.23;;
15831;SDS011;8016;49.928;9.372;2023-08-01T07:30:44;2.50;;;2.10;;
15831;SDS011;8016;49.928;9.372;2023-08-01T07:33:10;2.83;;;2.07;;
15831;SDS011;8016;49.928;9.372;2023-08-01T07:35:36;2.60;;;1.67;;
15831;SDS011;8016;49.928;9.372;2023-08-01T07:38:02;1.60;;;1.50;;
15831;SDS011;8016;49.928;9.372;2023-08-01T07:40:28;1.50;;;1.20;;
15831;SDS011;8016;49.928;9.372;2023-08-01T07:42:54;1.50;;;1.20;;
15831;SDS011;8016;49.928;9.372;2023-08-01T07:45:20;1.17;;;1.07;;
15831;SDS011;8016;49.928;9.372;2023-08-01T07:47:46;1.00;;;0.80;;
15831;SDS011;8016;49.928;9.372;2023-08-01T07:50:12;2.53;;;2.10;;
15831;SDS011;8016;49.928;9.372;2023-08-01T07:52:38;2.50;;;2.30;;
15831;SDS011;8016;49.928;9.372;2023-08-01T07:55:04;1.60;;;1.43;;
15831;SDS011;8016;49.928;9.372;2023-08-01T07:57:30;1.30;;;1.20;;
15831;SDS011;8016;49.928;9.372;2023-08-01T07:59:56;1.70;;;1.50;;
15831;SDS011;8016;49.928;9.372;2023-08-01T08:02:22;1.60;;;1.40;;
15831;SDS011;8016;49.928;9.372;2023-08-01T08:04:48;2.27;;;1.13;;
15831;SDS011;8016;49.928;9.372;2023-08-01T08:07:14;1.53;;;1.30;;
15831;SDS011;8016;49.928;9.372;2023-08-01T08:09:40;1.40;;;1.30;;
15831;SDS011;8016;49.928;9.372;2023-08-01T08:12:06;1.40;;;1.30;;
15831;SDS011;8016;49.928;9.372;2023-08-01T08:14:33;1.70;;;1.10;;
15831;SDS011;8016;49.928;9.372;2023-08-01T08:16:58;0.70;;;0.67;;
15831;SDS011;8016;49.928;9.372;2023-08-01T08:19:24;1.17;;;0.93;;
15831;SDS011;8016;49.928;9.372;2023-08-01T08:21:50;2.10;;;0.97;;
15831;SDS011;8016;49.928;9.372;2023-08-01T08:24:16;1.50;;;1.00;;
15831;SDS011;8016;49.928;9.372;2023-08-01T08:26:42;1.27;;;0.80;;
15831;SDS011;8016;49.928;9.372;2023-08-01T08:29:10;1.23;;;1.13;;
15831;SDS011;8016;49.928;9.372;2023-08-01T08:31:36;1.20;;;1.00;;
15831;SDS011;8016;49.928;9.372;2023-08-01T08:34:02;2.17;;;1.13;;
15831;SDS011;8016;49.928;9.372;2023-08-01T08:36:28;1.47;;;1.07;;
15831;SDS011;8016;49.928;9.372;2023-08-01T08:38:54;1.20;;;1.10;;
15831;SDS011;8016;49.928;9.372;2023-08-01T08:41:20;1.17;;;1.07;;
15831;SDS011;8016;49.928;9.372;2023-08-01T08:43:47;1.93;;;1.07;;
15831;SDS011;8016;49.928;9.372;2023-08-01T08:46:14;3.20;;;1.30;;
15831;SDS011;8016;49.928;9.372;2023-08-01T08:48:41;1.43;;;1.33;;
15831;SDS011;8016;49.928;9.372;2023-08-01T08:51:07;1.20;;;1.10;;
15831;SDS011;8016;49.928;9.372;2023-08-01T08:53:33;1.30;;;1.20;;
15831;SDS011;8016;49.928;9.372;2023-08-01T08:56:01;1.10;;;1.00;;
15831;SDS011;8016;49.928;9.372;2023-08-01T08:58:31;1.40;;;1.23;;
15831;SDS011;8016;49.928;9.372;2023-08-01T09:00:57;1.33;;;1.20;;
15831;SDS011;8016;49.928;9.372;2023-08-01T09:03:24;1.47;;;1.10;;
15831;SDS011;8016;49.928;9.372;2023-08-01T09:05:50;1.43;;;1.30;;
15831;SDS011;8016;49.928;9.372;2023-08-01T09:08:20;1.53;;;1.20;;
15831;SDS011;8016;49.928;9.372;2023-08-01T09:10:46;1.80;;;1.20;;
15831;SDS011;8016;49.928;9.372;2023-08-01T09:13:13;1.63;;;1.30;;
15831;SDS011;8016;49.928;9.372;2023-08-01T09:15:42;1.50;;;1.20;;
15831;SDS011;8016;49.928;9.372;2023-08-01T09:18:11;1.90;;;1.50;;
15831;SDS011;8016;49.928;9.372;2023-08-01T09:20:44;2.60;;;1.50;;
15831;SDS011;8016;49.928;9.372;2023-08-01T09:23:11;1.67;;;1.27;;
15831;SDS011;8016;49.928;9.372;2023-08-01T09:25:37;3.57;;;1.20;;
15831;SDS011;8016;49.928;9.372;2023-08-01T09:28:04;1.30;;;1.20;;
15831;SDS011;8016;49.928;9.372;2023-08-01T09:30:51;1.27;;;1.13;;
15831;SDS011;8016;49.928;9.372;2023-08-01T09:33:19;1.17;;;1.03;;
15831;SDS011;8016;49.928;9.372;2023-08-01T09:35:45;1.93;;;1.00;;
15831;SDS011;8016;49.928;9.372;2023-08-01T09:38:12;1.50;;;1.07;;
15831;SDS011;8016;49.928;9.372;2023-08-01T09:40:39;2.07;;;1.07;;
15831;SDS011;8016;49.928;9.372;2023-08-01T09:43:05;2.40;;;0.80;;
15831;SDS011;8016;49.928;9.372;2023-08-01T09:45:31;1.47;;;0.97;;
15831;SDS011;8016;49.928;9.372;2023-08-01T09:47:59;2.60;;;1.23;;
15831;SDS011;8016;49.928;9.372;2023-08-01T09:50:25;2.83;;;1.30;;
15831;SDS011;8016;49.928;9.372;2023-08-01T09:52:51;2.10;;;1.17;;
15831;SDS011;8016;49.928;9.372;2023-08-01T09:55:33;1.70;;;1.27;;
15831;SDS011;8016;49.928;9.372;2023-08-01T09:57:59;2.00;;;1.40;;
15831;SDS011;8016;49.928;9.372;2023-08-01T10:00:26;1.37;;;1.20;;
15831;SDS011;8016;49.928;9.372;2023-08-01T10:02:52;2.17;;;1.50;;
15831;SDS011;8016;49.928;9.372;2023-08-01T10:05:19;1.23;;;1.13;;
15831;SDS011;8016;49.928;9.372;2023-08-01T10:07:45;1.70;;;1.10;;
15831;SDS011;8016;49.928;9.372;2023-08-01T10:10:13;1.57;;;1.07;;
15831;SDS011;8016;49.928;9.372;2023-08-01T10:12:39;1.33;;;1.20;;
15831;SDS011;8016;49.928;9.372;2023-08-01T10:15:08;1.50;;;1.30;;
15831;SDS011;8016;49.928;9.372;2023-08-01T10:17:34;2.57;;;1.30;;
15831;SDS011;8016;49.928;9.372;2023-08-01T10:20:01;1.70;;;1.30;;
15831;SDS011;8016;49.928;9.372;2023-08-01T10:22:28;1.50;;;1.40;;
15831;SDS011;8016;49.928;9.372;2023-08-01T10:24:54;2.90;;;1.17;;
15831;SDS011;8016;49.928;9.372;2023-08-01T10:27:21;2.30;;;1.63;;
15831;SDS011;8016;49.928;9.372;2023-08-01T10:30:00;2.67;;;1.60;;
15831;SDS011;8016;49.928;9.372;2023-08-01T10:32:31;3.20;;;1.50;;
15831;SDS011;8016;49.928;9.372;2023-08-01T10:34:57;2.93;;;1.40;;
15831;SDS011;8016;49.928;9.372;2023-08-01T10:37:23;2.90;;;1.77;;
15831;SDS011;8016;49.928;9.372;2023-08-01T10:39:59;1.67;;;1.40;;
15831;SDS011;8016;49.928;9.372;2023-08-01T10:42:25;3.27;;;1.60;;
15831;SDS011;8016;49.928;9.372;2023-08-01T10:44:51;1.97;;;1.30;;
15831;SDS011;8016;49.928;9.372;2023-08-01T10:47:26;2.00;;;1.40;;
15831;SDS011;8016;49.928;9.372;2023-08-01T10:49:53;2.30;;;1.13;;
15831;SDS011;8016;49.928;9.372;2023-08-01T10:54:45;2.57;;;2.07;;
15831;SDS011;8016;49.928;9.372;2023-08-01T10:57:17;1.40;;;1.30;;
15831;SDS011;8016;49.928;9.372;2023-08-01T10:59:43;1.43;;;1.17;;
15831;SDS011;8016;49.928;9.372;2023-08-01T11:02:10;1.63;;;1.17;;
15831;SDS011;8016;49.928;9.372;2023-08-01T11:04:36;3.27;;;1.60;;
15831;SDS011;8016;49.928;9.372;2023-08-01T11:07:03;2.20;;;1.23;;
15831;SDS011;8016;49.928;9.372;2023-08-01T11:09:29;2.97;;;1.23;;
15831;SDS011;8016;49.928;9.372;2023-08-01T11:11:56;1.30;;;1.10;;
15831;SDS011;8016;49.928;9.372;2023-08-01T11:14:23;2.60;;;1.30;;
15831;SDS011;8016;49.928;9.372;2023-08-01T11:16:50;1.90;;;1.10;;
15831;SDS011;8016;49.928;9.372;2023-08-01T11:19:22;2.10;;;1.27;;
15831;SDS011;8016;49.928;9.372;2023-08-01T11:21:49;1.83;;;1.17;;
15831;SDS011;8016;49.928;9.372;2023-08-01T11:24:17;1.80;;;1.30;;
15831;SDS011;8016;49.928;9.372;2023-08-01T11:26:44;2.10;;;1.30;;
15831;SDS011;8016;49.928;9.372;2023-08-01T11:29:10;1.07;;;0.90;;
15831;SDS011;8016;49.928;9.372;2023-08-01T11:31:36;2.03;;;1.40;;
15831;SDS011;8016;49.928;9.372;2023-08-01T11:34:02;1.40;;;1.03;;
15831;SDS011;8016;49.928;9.372;2023-08-01T11:36:29;1.77;;;1.43;;
15831;SDS011;8016;49.928;9.372;2023-08-01T11:38:59;1.23;;;1.03;;
15831;SDS011;8016;49.928;9.372;2023-08-01T11:41:28;1.57;;;1.00;;
15831;SDS011;8016;49.928;9.372;2023-08-01T11:43:54;1.10;;;0.93;;
15831;SDS011;8016;49.928;9.372;2023-08-01T11:46:21;1.47;;;1.07;;
15831;SDS011;8016;49.928;9.372;2023-08-01T11:48:47;2.37;;;1.20;;
15831;SDS011;8016;49.928;9.372;2023-08-01T11:51:15;1.57;;;1.00;;
15831;SDS011;8016;49.928;9.372;2023-08-01T11:53:41;1.33;;;0.90;;
15831;SDS011;8016;49.928;9.372;2023-08-01T11:56:07;2.87;;;1.30;;
15831;SDS011;8016;49.928;9.372;2023-08-01T11:58:35;1.37;;;0.93;;
15831;SDS011;8016;49.928;9.372;2023-08-01T12:01:02;1.80;;;1.40;;
15831;SDS011;8016;49.928;9.372;2023-08-01T12:03:28;2.47;;;1.30;;
15831;SDS011;8016;49.928;9.372;2023-08-01T12:06:04;1.47;;;1.17;;
15831;SDS011;8016;49.928;9.372;2023-08-01T12:08:32;2.30;;;1.23;;
15831;SDS011;8016;49.928;9.372;2023-08-01T12:10:58;3.97;;;1.60;;
15831;SDS011;8016;49.928;9.372;2023-08-01T12:13:24;2.37;;;1.30;;
15831;SDS011;8016;49.928;9.372;2023-08-01T12:15:51;1.53;;;1.23;;
15831;SDS011;8016;49.928;9.372;2023-08-01T12:18:21;2.37;;;1.10;;
15831;SDS011;8016;49.928;9.372;2023-08-01T12:20:47;2.80;;;1.40;;
15831;SDS011;8016;49.928;9.372;2023-08-01T12:23:13;1.13;;;1.03;;
15831;SDS011;8016;49.928;9.372;2023-08-01T12:25:39;1.17;;;1.07;;
15831;SDS011;8016;49.928;9.372;2023-08-01T12:28:05;2.27;;;1.30;;
15831;SDS011;8016;49.928;9.372;2023-08-01T12:30:31;2.57;;;1.30;;
15831;SDS011;8016;49.928;9.372;2023-08-01T12:32:57;1.90;;;1.03;;
15831;SDS011;8016;49.928;9.372;2023-08-01T12:35:23;1.20;;;1.00;;
15831;SDS011;8016;49.928;9.372;2023-08-01T12:37:49;3.30;;;1.40;;
15831;SDS011;8016;49.928;9.372;2023-08-01T12:40:17;2.10;;;1.40;;
15831;SDS011;8016;49.928;9.372;2023-08-01T12:42:43;2.33;;;1.10;;
15831;SDS011;8016;49.928;9.372;2023-08-01T12:45:09;2.00;;;1.30;;
15831;SDS011;8016;49.928;9.372;2023-08-01T12:47:35;1.77;;;1.20;;
15831;SDS011;8016;49.928;9.372;2023-08-01T12:50:01;1.63;;;1.00;;
15831;SDS011;8016;49.928;9.372;2023-08-01T12:52:27;2.00;;;1.00;;
15831;SDS011;8016;49.928;9.372;2023-08-01T12:54:53;1.57;;;1.20;;
15831;SDS011;8016;49.928;9.372;2023-08-01T12:57:19;2.10;;;1.40;;
15831;SDS011;8016;49.928;9.372;2023-08-01T12:59:45;3.77;;;1.30;;
15831;SDS011;8016;49.928;9.372;2023-08-01T13:02:11;2.00;;;1.20;;
15831;SDS011;8016;49.928;9.372;2023-08-01T13:04:37;2.20;;;1.27;;
15831;SDS011;8016;49.928;9.372;2023-08-01T13:07:03;2.13;;;1.30;;
15831;SDS011;8016;49.928;9.372;2023-08-01T13:09:29;1.87;;;1.20;;
15831;SDS011;8016;49.928;9.372;2023-08-01T13:11:55;3.73;;;1.40;;
15831;SDS011;8016;49.928;9.372;2023-08-01T13:14:21;1.83;;;1.10;;
15831;SDS011;8016;49.928;9.372;2023-08-01T13:16:47;3.63;;;1.20;;
15831;SDS011;8016;49.928;9.372;2023-08-01T13:19:13;1.37;;;0.97;;
15831;SDS011;8016;49.928;9.372;2023-08-01T13:21:39;1.67;;;1.10;;
15831;SDS011;8016;49.928;9.372;2023-08-01T13:24:05;3.47;;;1.30;;
15831;SDS011;8016;49.928;9.372;2023-08-01T13:26:31;2.23;;;0.90;;
15831;SDS011;8016;49.928;9.372;2023-08-01T13:28:57;2.30;;;1.07;;
15831;SDS011;8016;49.928;9.372;2023-08-01T13:31:23;1.70;;;1.17;;
15831;SDS011;8016;49.928;9.372;2023-08-01T13:33:49;1.43;;;1.00;;
15831;SDS011;8016;49.928;9.372;2023-08-01T13:36:17;1.40;;;1.07;;
15831;SDS011;8016;49.928;9.372;2023-08-01T13:38:43;2.80;;;1.10;;
15831;SDS011;8016;49.928;9.372;2023-08-01T13:41:09;1.70;;;1.00;;
15831;SDS011;8016;49.928;9.372;2023-08-01T13:43:35;2.40;;;1.20;;
15831;SDS011;8016;49.928;9.372;2023-08-01T13:46:07;2.30;;;1.10;;
15831;SDS011;8016;49.928;9.372;2023-08-01T13:48:33;1.30;;;1.10;;
15831;SDS011;8016;49.928;9.372;2023-08-01T13:50:59;1.73;;;1.17;;
15831;SDS011;8016;49.928;9.372;2023-08-01T13:53:25;2.30;;;1.23;;
15831;SDS011;8016;49.928;9.372;2023-08-01T13:55:51;1.80;;;1.43;;
15831;SDS011;8016;49.928;9.372;2023-08-01T13:58:17;3.67;;;1.33;;
15831;SDS011;8016;49.928;9.372;2023-08-01T14:00:43;1.90;;;1.33;;
15831;SDS011;8016;49.928;9.372;2023-08-01T14:03:09;2.67;;;1.27;;
15831;SDS011;8016;49.928;9.372;2023-08-01T14:05:35;1.37;;;1.10;;
15831;SDS011;8016;49.928;9.372;2023-08-01T14:08:01;2.07;;;1.37;;
15831;SDS011;8016;49.928;9.372;2023-08-01T14:10:27;1.63;;;1.30;;
15831;SDS011;8016;49.928;9.372;2023-08-01T14:12:53;3.90;;;2.20;;
15831;SDS011;8016;49.928;9.372;2023-08-01T14:15:19;2.50;;;1.40;;
15831;SDS011;8016;49.928;9.372;2023-08-01T14:17:46;2.40;;;1.37;;
15831;SDS011;8016;49.928;9.372;2023-08-01T14:20:12;1.93;;;1.43;;
15831;SDS011;8016;49.928;9.372;2023-08-01T14:22:38;3.50;;;1.57;;
15831;SDS011;8016;49.928;9.372;2023-08-01T14:25:06;3.30;;;1.70;;
15831;SDS011;8016;49.928;9.372;2023-08-01T14:27:33;3.70;;;1.60;;
15831;SDS011;8016;49.928;9.372;2023-08-01T14:29:59;3.23;;;1.60;;
15831;SDS011;8016;49.928;9.372;2023-08-01T14:32:25;2.70;;;1.40;;
15831;SDS011;8016;49.928;9.372;2023-08-01T14:34:51;4.43;;;2.07;;
15831;SDS011;8016;49.928;9.372;2023-08-01T14:37:17;3.20;;;1.50;;
15831;SDS011;8016;49.928;9.372;2023-08-01T14:39:43;2.10;;;1.23;;
15831;SDS011;8016;49.928;9.372;2023-08-01T14:42:09;2.77;;;1.33;;
15831;SDS011;8016;49.928;9.372;2023-08-01T14:44:35;1.50;;;1.37;;
15831;SDS011;8016;49.928;9.372;2023-08-01T14:47:04;3.60;;;1.20;;
15831;SDS011;8016;49.928;9.372;2023-08-01T14:49:30;2.80;;;1.40;;
15831;SDS011;8016;49.928;9.372;2023-08-01T14:51:56;1.63;;;1.40;;
15831;SDS011;8016;49.928;9.372;2023-08-01T14:54:22;1.80;;;1.10;;
15831;SDS011;8016;49.928;9.372;2023-08-01T14:56:50;2.53;;;1.17;;
15831;SDS011;8016;49.928;9.372;2023-08-01T14:59:17;1.63;;;1.00;;